Time,TemperatureF,DewpointF,PressureIn,WindDirection,WindDirectionDegrees,WindSpeedMPH,WindSpeedGustMPH,Humidity,HourlyPrecipIn,Conditions,Clouds,dailyrainin,SolarRadiationWatts/m^2,SoftwareType,DateUTC
2013-04-13 00:02:00,45.6,21.4,29.84,WNW,289,4.0,0.0,38,0.00,,,0.00,1,WeatherHawk,2013-04-13 07:02:00,
2013-04-13 00:08:00,45.7,21.6,29.84,West,272,19.0,0.0,38,0.00,,,0.00,0,WeatherHawk,2013-04-13 07:08:00,
2013-04-13 00:13:00,45.4,21.3,29.83,WSW,250,11.0,0.0,38,0.00,,,0.00,1,WeatherHawk,2013-04-13 07:13:00,
2013-04-13 00:18:00,45.1,21.6,29.84,SSE,148,5.0,0.0,39,0.00,,,0.00,0,WeatherHawk,2013-04-13 07:18:00,
2013-04-13 00:23:00,45.1,21.7,29.84,NNW,332,3.0,0.0,39,0.00,,,0.00,0,WeatherHawk,2013-04-13 07:23:00,
2013-04-13 00:28:00,45.2,21.7,29.84,North,7,7.0,0.0,39,0.00,,,0.00,0,WeatherHawk,2013-04-13 07:28:00,
2013-04-13 00:34:00,45.2,21.8,29.84,WNW,286,6.0,0.0,39,0.00,,,0.00,0,WeatherHawk,2013-04-13 07:34:00,
2013-04-13 00:39:00,45.2,21.7,29.84,NW,314,5.0,0.0,39,0.00,,,0.00,0,WeatherHawk,2013-04-13 07:39:00,
2013-04-13 00:44:00,45.4,22.5,29.85,WSW,251,7.0,0.0,40,0.00,,,0.00,1,WeatherHawk,2013-04-13 07:44:00,
2013-04-13 00:49:00,44.8,21.4,29.84,South,172,6.0,0.0,39,0.00,,,0.00,0,WeatherHawk,2013-04-13 07:49:00,
2013-04-13 00:54:00,45.1,21.6,29.85,West,260,19.0,0.0,39,0.00,,,0.00,0,WeatherHawk,2013-04-13 07:54:00,
2013-04-13 01:00:00,45.2,21.7,29.84,SSW,197,16.0,0.0,39,0.00,,,0.00,0,WeatherHawk,2013-04-13 08:00:00,
2013-04-13 01:05:00,45.0,21.6,29.84,West,262,8.0,0.0,39,0.00,,,0.00,1,WeatherHawk,2013-04-13 08:05:00,
2013-04-13 01:10:00,45.0,21.5,29.84,West,269,12.0,0.0,39,0.00,,,0.00,0,WeatherHawk,2013-04-13 08:10:00,
2013-04-13 01:15:00,45.0,21.6,29.84,WNW,290,19.0,0.0,39,0.00,,,0.00,0,WeatherHawk,2013-04-13 08:15:00,
2013-04-13 01:21:00,44.9,21.4,29.83,West,274,14.0,0.0,39,0.00,,,0.00,0,WeatherHawk,2013-04-13 08:21:00,
2013-04-13 01:27:00,44.6,21.8,29.83,NW,307,14.0,0.0,40,0.00,,,0.00,1,WeatherHawk,2013-04-13 08:27:00,
2013-04-13 01:32:00,44.3,22.1,29.83,West,273,8.0,0.0,41,0.00,,,0.00,0,WeatherHawk,2013-04-13 08:32:00,
2013-04-13 01:37:00,44.4,21.0,29.82,NW,312,19.0,0.0,39,0.00,,,0.00,0,WeatherHawk,2013-04-13 08:37:00,
2013-04-13 01:43:00,44.0,20.6,29.82,WNW,302,7.0,0.0,39,0.00,,,0.00,0,WeatherHawk,2013-04-13 08:43:00,
2013-04-13 01:48:00,44.1,20.2,29.82,SSW,212,12.0,0.0,38,0.00,,,0.00,0,WeatherHawk,2013-04-13 08:48:00,
2013-04-13 01:53:00,44.1,20.8,29.83,WSW,239,13.0,0.0,39,0.00,,,0.00,0,WeatherHawk,2013-04-13 08:53:00,
2013-04-13 01:58:00,44.1,20.1,29.83,NW,324,12.0,0.0,38,0.00,,,0.00,0,WeatherHawk,2013-04-13 08:58:00,
2013-04-13 02:03:00,43.9,19.3,29.82,SW,231,13.0,0.0,37,0.00,,,0.00,1,WeatherHawk,2013-04-13 09:03:00,
2013-04-13 02:08:00,44.1,20.1,29.83,WSW,245,14.0,0.0,38,0.00,,,0.00,0,WeatherHawk,2013-04-13 09:08:00,
2013-04-13 02:14:00,44.1,19.5,29.83,NW,316,11.0,-999.0,37,0.00,,,0.00,0,WeatherHawk,2013-04-13 09:14:00,
2013-04-13 02:19:00,44.1,18.9,29.83,West,274,16.0,0.0,36,0.00,,,0.00,0,WeatherHawk,2013-04-13 09:19:00,
2013-04-13 02:24:00,44.1,17.6,29.84,WSW,249,14.0,0.0,34,0.00,,,0.00,0,WeatherHawk,2013-04-13 09:24:00,
2013-04-13 02:29:00,43.5,16.3,29.84,SW,218,6.0,-999.0,33,0.00,,,0.00,0,WeatherHawk,2013-04-13 09:29:00,
2013-04-13 02:34:00,43.3,17.5,29.83,SSW,208,10.0,-999.0,35,0.00,,,0.00,1,WeatherHawk,2013-04-13 09:34:00,
2013-04-13 02:40:00,43.3,18.8,29.84,West,277,11.0,0.0,37,0.00,,,0.00,0,WeatherHawk,2013-04-13 09:40:00,
2013-04-13 02:45:00,42.9,19.7,29.84,South,181,6.0,0.0,39,0.00,,,0.00,0,WeatherHawk,2013-04-13 09:45:00,
2013-04-13 02:51:00,43.0,20.4,29.84,SSE,152,8.0,0.0,40,0.00,,,0.00,0,WeatherHawk,2013-04-13 09:51:00,
2013-04-13 02:57:00,42.5,20.5,29.84,West,281,5.0,0.0,41,0.00,,,0.00,0,WeatherHawk,2013-04-13 09:57:00,
2013-04-13 03:02:00,43.1,19.3,29.85,WNW,287,13.0,0.0,38,0.00,,,0.00,1,WeatherHawk,2013-04-13 10:02:00,
2013-04-13 03:07:00,42.9,15.8,29.85,SW,232,16.0,0.0,33,0.00,,,0.00,0,WeatherHawk,2013-04-13 10:07:00,
2013-04-13 03:13:00,42.4,14.6,29.85,SW,233,8.0,0.0,32,0.00,,,0.00,0,WeatherHawk,2013-04-13 10:13:00,
2013-04-13 03:18:00,42.0,13.6,29.85,West,273,11.0,0.0,31,0.00,,,0.00,0,WeatherHawk,2013-04-13 10:18:00,
2013-04-13 03:24:00,42.2,13.0,29.86,WSW,253,22.0,0.0,30,0.00,,,0.00,0,WeatherHawk,2013-04-13 10:24:00,
2013-04-13 03:29:00,41.8,14.1,29.86,West,274,13.0,0.0,32,0.00,,,0.00,0,WeatherHawk,2013-04-13 10:29:00,
2013-04-13 03:34:00,41.6,12.5,29.86,SW,230,12.0,-999.0,30,0.00,,,0.00,0,WeatherHawk,2013-04-13 10:34:00,
2013-04-13 03:39:00,41.4,13.8,29.86,WSW,247,18.0,-999.0,32,0.00,,,0.00,0,WeatherHawk,2013-04-13 10:39:00,
2013-04-13 03:44:00,40.9,13.4,29.87,West,278,4.0,0.0,32,0.00,,,0.00,0,WeatherHawk,2013-04-13 10:44:00,
2013-04-13 03:49:00,40.9,12.6,29.87,SW,225,12.0,0.0,31,0.00,,,0.00,0,WeatherHawk,2013-04-13 10:49:00,
2013-04-13 03:54:00,40.8,12.6,29.87,WSW,256,15.0,0.0,31,0.00,,,0.00,0,WeatherHawk,2013-04-13 10:54:00,
2013-04-13 03:59:00,40.5,12.3,29.88,NW,318,11.0,0.0,31,0.00,,,0.00,0,WeatherHawk,2013-04-13 10:59:00,
2013-04-13 04:04:00,40.3,12.1,29.88,SW,235,12.0,-999.0,31,0.00,,,0.00,1,WeatherHawk,2013-04-13 11:04:00,
2013-04-13 04:09:00,40.2,11.2,29.88,West,268,7.0,0.0,30,0.00,,,0.00,0,WeatherHawk,2013-04-13 11:09:00,
2013-04-13 04:14:00,40.0,11.1,29.89,WSW,250,7.0,0.0,30,0.00,,,0.00,0,WeatherHawk,2013-04-13 11:14:00,
2013-04-13 04:19:00,39.9,12.5,29.89,West,277,12.0,0.0,32,0.00,,,0.00,1,WeatherHawk,2013-04-13 11:19:00,
2013-04-13 04:24:00,39.5,11.4,29.90,WNW,299,9.0,0.0,31,0.00,,,0.00,0,WeatherHawk,2013-04-13 11:24:00,
2013-04-13 04:29:00,39.9,10.2,29.90,West,265,18.0,-999.0,29,0.00,,,0.00,0,WeatherHawk,2013-04-13 11:29:00,
2013-04-13 04:34:00,39.2,11.1,29.91,WNW,286,5.0,0.0,31,0.00,,,0.00,1,WeatherHawk,2013-04-13 11:34:00,
2013-04-13 04:39:00,39.2,13.2,29.91,SE,139,4.0,0.0,34,0.00,,,0.00,0,WeatherHawk,2013-04-13 11:39:00,
2013-04-13 04:44:00,39.3,10.5,29.91,WSW,238,10.0,0.0,30,0.00,,,0.00,0,WeatherHawk,2013-04-13 11:44:00,
2013-04-13 04:49:00,38.8,12.2,29.91,NNW,336,2.0,0.0,33,0.00,,,0.00,0,WeatherHawk,2013-04-13 11:49:00,
2013-04-13 04:54:00,38.7,12.8,29.91,SE,134,6.0,0.0,34,0.00,,,0.00,0,WeatherHawk,2013-04-13 11:54:00,
2013-04-13 04:59:00,37.7,13.1,29.92,North,0,0.0,0.0,36,0.00,,,0.00,0,WeatherHawk,2013-04-13 11:59:00,
2013-04-13 05:04:00,38.8,13.5,29.92,SE,139,6.0,0.0,35,0.00,,,0.00,0,WeatherHawk,2013-04-13 12:04:00,
2013-04-13 05:10:00,37.6,12.5,29.93,North,350,9.0,0.0,35,0.00,,,0.00,0,WeatherHawk,2013-04-13 12:10:00,
2013-04-13 05:15:00,38.2,14.3,29.93,North,3,10.0,0.0,37,0.00,,,0.00,0,WeatherHawk,2013-04-13 12:15:00,
2013-04-13 05:22:00,37.9,12.7,29.93,WSW,245,4.0,0.0,35,0.00,,,0.00,0,WeatherHawk,2013-04-13 12:22:00,
2013-04-13 05:27:00,38.1,11.5,29.94,NW,317,7.0,0.0,33,0.00,,,0.00,0,WeatherHawk,2013-04-13 12:27:00,
2013-04-13 05:32:00,38.2,11.0,29.93,ENE,59,2.0,0.0,32,0.00,,,0.00,0,WeatherHawk,2013-04-13 12:32:00,
2013-04-13 05:38:00,38.0,11.5,29.94,NW,305,1.0,0.0,33,0.00,,,0.00,0,WeatherHawk,2013-04-13 12:38:00,
2013-04-13 05:43:00,38.2,11.0,29.94,WNW,284,14.0,0.0,32,0.00,,,0.00,0,WeatherHawk,2013-04-13 12:43:00,
2013-04-13 05:49:00,37.6,9.8,29.94,NW,321,18.0,0.0,31,0.00,,,0.00,1,WeatherHawk,2013-04-13 12:49:00,
2013-04-13 05:54:00,37.7,9.1,29.95,SW,234,9.0,-999.0,30,0.00,,,0.00,0,WeatherHawk,2013-04-13 12:54:00,
2013-04-13 05:59:00,37.4,8.9,29.94,SSW,209,5.0,0.0,30,0.00,,,0.00,0,WeatherHawk,2013-04-13 12:59:00,
2013-04-13 06:05:00,37.2,10.1,29.94,SSW,195,4.0,0.0,32,0.00,,,0.00,0,WeatherHawk,2013-04-13 13:05:00,
2013-04-13 06:11:00,37.3,11.6,29.95,NW,310,7.0,0.0,34,0.00,,,0.00,0,WeatherHawk,2013-04-13 13:11:00,
2013-04-13 06:16:00,36.5,11.5,29.94,NNE,16,0.0,0.0,35,0.00,,,0.00,1,WeatherHawk,2013-04-13 13:16:00,
2013-04-13 06:21:00,37.3,13.5,29.95,WNW,300,6.0,0.0,37,0.00,,,0.00,2,WeatherHawk,2013-04-13 13:21:00,
2013-04-13 06:27:00,37.1,12.0,29.94,WSW,241,8.0,0.0,35,0.00,,,0.00,5,WeatherHawk,2013-04-13 13:27:00,
2013-04-13 06:32:00,36.3,11.9,29.95,NW,318,0.0,0.0,36,0.00,,,0.00,8,WeatherHawk,2013-04-13 13:32:00,
2013-04-13 06:36:00,36.5,12.1,29.95,WNW,293,1.0,0.0,36,0.00,,,0.00,12,WeatherHawk,2013-04-13 13:36:00,
2013-04-13 06:42:00,36.8,13.0,29.95,SSE,163,5.0,0.0,37,0.00,,,0.00,16,WeatherHawk,2013-04-13 13:42:00,
2013-04-13 06:48:00,36.2,13.0,29.95,South,171,6.0,0.0,38,0.00,,,0.00,20,WeatherHawk,2013-04-13 13:48:00,
2013-04-13 06:53:00,36.7,14.7,29.95,SW,236,4.0,0.0,40,0.00,,,0.00,21,WeatherHawk,2013-04-13 13:53:00,
2013-04-13 06:58:00,37.0,14.9,29.95,SSW,202,8.0,0.0,40,0.00,,,0.00,26,WeatherHawk,2013-04-13 13:58:00,
2013-04-13 07:04:00,36.9,14.3,29.95,WNW,288,8.0,0.0,39,0.00,,,0.00,32,WeatherHawk,2013-04-13 14:04:00,
2013-04-13 07:09:00,37.1,13.3,29.95,SW,216,3.0,0.0,37,0.00,,,0.00,35,WeatherHawk,2013-04-13 14:09:00,
2013-04-13 07:14:00,37.0,13.2,29.95,SW,224,3.0,0.0,37,0.00,,,0.00,35,WeatherHawk,2013-04-13 14:14:00,
2013-04-13 07:19:00,37.9,13.3,29.96,WSW,246,5.0,0.0,36,0.00,,,0.00,36,WeatherHawk,2013-04-13 14:19:00,
2013-04-13 07:24:00,37.9,12.7,29.96,WSW,240,6.0,0.0,35,0.00,,,0.00,36,WeatherHawk,2013-04-13 14:24:00,
2013-04-13 07:29:00,37.9,11.4,29.96,SW,221,5.0,-999.0,33,0.00,,,0.00,37,WeatherHawk,2013-04-13 14:29:00,
2013-04-13 07:34:00,38.3,11.7,29.97,SW,228,8.0,0.0,33,0.00,,,0.00,54,WeatherHawk,2013-04-13 14:34:00,
2013-04-13 07:39:00,38.6,12.0,29.96,SW,226,6.0,-999.0,33,0.00,,,0.00,51,WeatherHawk,2013-04-13 14:39:00,
2013-04-13 07:44:00,38.5,11.2,29.96,NNW,346,4.0,0.0,32,0.00,,,0.00,54,WeatherHawk,2013-04-13 14:44:00,
2013-04-13 07:49:00,38.7,11.4,29.97,North,0,10.0,0.0,32,0.00,,,0.00,54,WeatherHawk,2013-04-13 14:49:00,
2013-04-13 07:54:00,39.2,12.5,29.97,WNW,299,13.0,0.0,33,0.00,,,0.00,171,WeatherHawk,2013-04-13 14:54:00,
2013-04-13 07:59:00,40.2,12.0,29.97,WNW,303,10.0,0.0,31,0.00,,,0.00,240,WeatherHawk,2013-04-13 14:59:00,
2013-04-13 08:04:00,40.3,10.6,29.97,West,268,8.0,0.0,29,0.00,,,0.00,296,WeatherHawk,2013-04-13 15:04:00,
2013-04-13 08:10:00,39.7,10.1,29.97,WNW,295,18.0,0.0,29,0.00,,,0.00,277,WeatherHawk,2013-04-13 15:10:00,
2013-04-13 08:16:00,39.5,8.3,29.98,West,264,11.0,0.0,27,0.00,,,0.00,269,WeatherHawk,2013-04-13 15:16:00,
2013-04-13 08:22:00,40.8,10.2,29.98,SW,224,9.0,0.0,28,0.00,,,0.00,286,WeatherHawk,2013-04-13 15:22:00,
2013-04-13 08:28:00,39.9,9.4,29.98,SW,230,8.0,0.0,28,0.00,,,0.00,299,WeatherHawk,2013-04-13 15:28:00,
2013-04-13 08:34:00,40.4,7.4,29.99,WSW,257,4.0,0.0,25,0.00,,,0.00,310,WeatherHawk,2013-04-13 15:34:00,
2013-04-13 08:39:00,40.2,5.4,29.98,SW,235,10.0,-999.0,23,0.00,,,0.00,323,WeatherHawk,2013-04-13 15:39:00,
2013-04-13 08:44:00,40.3,6.4,29.99,West,262,9.0,0.0,24,0.00,,,0.00,337,WeatherHawk,2013-04-13 15:44:00,
2013-04-13 08:49:00,39.4,3.7,29.99,WNW,299,15.0,0.0,22,0.00,,,0.00,352,WeatherHawk,2013-04-13 15:49:00,
2013-04-13 08:54:00,39.3,0.6,29.99,NW,316,18.0,0.0,19,0.00,,,0.00,364,WeatherHawk,2013-04-13 15:54:00,
2013-04-13 08:59:00,39.6,0.8,29.99,WSW,257,11.0,0.0,19,0.00,,,0.00,381,WeatherHawk,2013-04-13 15:59:00,
2013-04-13 09:04:00,40.5,1.6,29.99,West,262,14.0,0.0,19,0.00,,,0.00,415,WeatherHawk,2013-04-13 16:04:00,
2013-04-13 09:09:00,40.4,-0.9,29.99,WNW,298,12.0,0.0,17,0.00,,,0.00,404,WeatherHawk,2013-04-13 16:09:00,
2013-04-13 09:14:00,40.4,-3.6,29.99,WNW,282,8.0,0.0,15,0.00,,,0.00,416,WeatherHawk,2013-04-13 16:14:00,
2013-04-13 09:19:00,40.0,-1.2,30.00,WSW,254,17.0,0.0,17,0.00,,,0.00,428,WeatherHawk,2013-04-13 16:19:00,
2013-04-13 09:24:00,39.5,0.7,30.00,NW,314,25.0,0.0,19,0.00,,,0.00,445,WeatherHawk,2013-04-13 16:24:00,
2013-04-13 09:29:00,40.3,4.5,30.00,NNW,347,15.0,0.0,22,0.00,,,0.00,457,WeatherHawk,2013-04-13 16:29:00,
2013-04-13 09:35:00,40.3,2.4,30.00,NW,307,12.0,0.0,20,0.00,,,0.00,467,WeatherHawk,2013-04-13 16:35:00,
2013-04-13 09:40:00,40.0,1.1,30.00,WNW,282,13.0,0.0,19,0.00,,,0.00,482,WeatherHawk,2013-04-13 16:40:00,
2013-04-13 09:48:00,41.8,2.6,30.00,SW,218,12.0,0.0,19,0.00,,,0.00,494,WeatherHawk,2013-04-13 16:48:00,
2013-04-13 09:53:00,41.3,-0.2,30.00,WSW,249,11.0,0.0,17,0.00,,,0.00,505,WeatherHawk,2013-04-13 16:53:00,
2013-04-13 09:58:00,41.7,-1.1,29.99,SSW,212,13.0,0.0,16,0.00,,,0.00,515,WeatherHawk,2013-04-13 16:58:00,
2013-04-13 10:04:00,41.0,-3.1,29.99,West,280,19.0,0.0,15,0.00,,,0.00,525,WeatherHawk,2013-04-13 17:04:00,
2013-04-13 10:09:00,40.3,-6.6,29.99,West,279,16.0,-999.0,13,0.00,,,0.00,537,WeatherHawk,2013-04-13 17:09:00,
2013-04-13 10:14:00,41.8,-3.9,29.99,West,272,14.0,-999.0,14,0.00,,,0.00,552,WeatherHawk,2013-04-13 17:14:00,
2013-04-13 10:19:00,42.9,-4.5,29.99,WNW,286,10.0,0.0,13,0.00,,,0.00,564,WeatherHawk,2013-04-13 17:19:00,
2013-04-13 10:24:00,43.4,-7.5,29.99,NW,305,9.0,0.0,11,0.00,,,0.00,581,WeatherHawk,2013-04-13 17:24:00,
2013-04-13 10:29:00,43.6,-5.6,29.99,WSW,253,9.0,-999.0,12,0.00,,,0.00,585,WeatherHawk,2013-04-13 17:29:00,
2013-04-13 10:34:00,40.2,-3.7,29.99,NW,308,21.0,0.0,15,0.00,,,0.00,552,WeatherHawk,2013-04-13 17:34:00,
2013-04-13 10:40:00,40.6,-6.3,29.99,West,280,11.0,0.0,13,0.00,,,0.00,592,WeatherHawk,2013-04-13 17:40:00,
2013-04-13 10:45:00,43.1,-7.8,29.99,WSW,245,10.0,0.0,11,0.00,,,0.00,603,WeatherHawk,2013-04-13 17:45:00,
2013-04-13 10:50:00,42.4,-10.3,29.99,WSW,251,9.0,0.0,10,0.00,,,0.00,616,WeatherHawk,2013-04-13 17:50:00,
2013-04-13 10:57:00,40.8,-6.2,29.99,WNW,294,18.0,0.0,13,0.00,,,0.00,622,WeatherHawk,2013-04-13 17:57:00,
2013-04-13 11:02:00,41.5,-10.9,29.99,West,263,10.0,0.0,10,0.00,,,0.00,633,WeatherHawk,2013-04-13 18:02:00,
2013-04-13 11:07:00,43.8,-7.2,29.99,SW,233,12.0,0.0,11,0.00,,,0.00,643,WeatherHawk,2013-04-13 18:07:00,
2013-04-13 11:13:00,40.6,-4.8,29.99,West,278,17.0,0.0,14,0.00,,,0.00,647,WeatherHawk,2013-04-13 18:13:00,
2013-04-13 11:18:00,43.8,0.6,29.99,SSW,207,10.0,0.0,16,0.00,,,0.00,654,WeatherHawk,2013-04-13 18:18:00,
2013-04-13 11:23:00,41.0,-7.7,30.00,West,276,17.0,0.0,12,0.00,,,0.00,657,WeatherHawk,2013-04-13 18:23:00,
2013-04-13 11:27:00,42.5,-4.8,30.00,WNW,288,13.0,0.0,13,0.00,,,0.00,659,WeatherHawk,2013-04-13 18:27:00,
2013-04-13 11:28:00,41.8,-3.8,30.00,WNW,300,15.0,0.0,14,0.00,,,0.00,662,WeatherHawk,2013-04-13 18:28:00,
2013-04-13 11:30:00,43.7,-5.6,30.00,WNW,291,10.0,0.0,12,0.00,,,0.00,663,WeatherHawk,2013-04-13 18:30:00,
2013-04-13 11:31:00,45.2,-6.1,30.00,SSW,210,10.0,0.0,11,0.00,,,0.00,662,WeatherHawk,2013-04-13 18:31:00,
2013-04-13 11:36:00,42.6,-8.2,30.00,SW,224,9.0,0.0,11,0.00,,,0.00,672,WeatherHawk,2013-04-13 18:36:00,
2013-04-13 11:42:00,41.6,-5.5,30.00,WNW,291,18.0,0.0,13,0.00,,,0.00,685,WeatherHawk,2013-04-13 18:42:00,
2013-04-13 11:47:00,43.3,-2.7,30.00,NW,317,20.0,0.0,14,0.00,,,0.00,684,WeatherHawk,2013-04-13 18:47:00,
2013-04-13 11:53:00,41.7,-8.9,30.00,West,259,9.0,0.0,11,0.00,,,0.00,694,WeatherHawk,2013-04-13 18:53:00,
2013-04-13 11:58:00,42.6,-6.4,30.00,West,269,12.0,0.0,12,0.00,,,0.00,697,WeatherHawk,2013-04-13 18:58:00,
2013-04-13 12:03:00,44.5,-13.1,30.00,SW,234,8.0,0.0,8,0.00,,,0.00,701,WeatherHawk,2013-04-13 19:03:00,
2013-04-13 12:09:00,43.9,-3.7,30.00,WSW,258,11.0,0.0,13,0.00,,,0.00,708,WeatherHawk,2013-04-13 19:09:00,
2013-04-13 12:14:00,44.7,-4.7,30.00,NW,309,10.0,-999.0,12,0.00,,,0.00,711,WeatherHawk,2013-04-13 19:14:00,
2013-04-13 12:19:00,42.4,-4.9,30.00,NW,314,19.0,0.0,13,0.00,,,0.00,715,WeatherHawk,2013-04-13 19:19:00,
2013-04-13 12:24:00,44.0,-7.1,30.00,NW,306,11.0,0.0,11,0.00,,,0.00,715,WeatherHawk,2013-04-13 19:24:00,
2013-04-13 12:29:00,43.2,-7.7,30.00,West,263,17.0,0.0,11,0.00,,,0.00,726,WeatherHawk,2013-04-13 19:29:00,
2013-04-13 12:34:00,45.4,-2.5,30.00,NNW,343,4.0,0.0,13,0.00,,,0.00,730,WeatherHawk,2013-04-13 19:34:00,
2013-04-13 12:39:00,43.3,-7.6,30.00,NW,314,22.0,0.0,11,0.00,,,0.00,729,WeatherHawk,2013-04-13 19:39:00,
2013-04-13 12:44:00,46.2,-0.3,30.00,SE,130,5.0,0.0,14,0.00,,,0.00,723,WeatherHawk,2013-04-13 19:44:00,
2013-04-13 12:49:00,45.3,-2.6,29.99,WNW,302,12.0,0.0,13,0.00,,,0.00,699,WeatherHawk,2013-04-13 19:49:00,
2013-04-13 12:54:00,46.9,-4.9,29.99,West,264,8.0,0.0,11,0.00,,,0.00,735,WeatherHawk,2013-04-13 19:54:00,
2013-04-13 12:59:00,45.8,-9.8,30.00,WSW,244,11.0,0.0,9,0.00,,,0.00,743,WeatherHawk,2013-04-13 19:59:00,
2013-04-13 13:04:00,44.4,-10.8,30.00,WNW,295,10.0,0.0,9,0.00,,,0.00,737,WeatherHawk,2013-04-13 20:04:00,
2013-04-13 13:09:00,45.4,-7.9,30.00,SSW,208,6.0,0.0,10,0.00,,,0.00,711,WeatherHawk,2013-04-13 20:09:00,
2013-04-13 13:14:00,42.9,-4.5,30.00,WNW,303,12.0,-999.0,13,0.00,,,0.00,651,WeatherHawk,2013-04-13 20:14:00,
2013-04-13 13:19:00,44.6,-8.6,29.99,WSW,245,10.0,0.0,10,0.00,,,0.00,606,WeatherHawk,2013-04-13 20:19:00,
2013-04-13 13:24:00,43.6,-4.0,29.99,West,264,15.0,0.0,13,0.00,,,0.00,629,WeatherHawk,2013-04-13 20:24:00,
2013-04-13 13:29:00,43.1,-14.2,30.00,WNW,282,20.0,0.0,8,0.00,,,0.00,663,WeatherHawk,2013-04-13 20:29:00,
2013-04-13 13:34:00,45.2,-10.2,30.00,WNW,300,5.0,0.0,9,0.00,,,0.00,711,WeatherHawk,2013-04-13 20:34:00,
2013-04-13 13:40:00,44.4,-5.0,30.00,WNW,297,14.0,0.0,12,0.00,,,0.00,559,WeatherHawk,2013-04-13 20:40:00,
2013-04-13 13:45:00,44.9,-2.9,29.99,SW,220,13.0,0.0,13,0.00,,,0.00,669,WeatherHawk,2013-04-13 20:45:00,
2013-04-13 13:50:00,44.4,-5.0,29.99,NW,309,14.0,0.0,12,0.00,,,0.00,641,WeatherHawk,2013-04-13 20:50:00,
2013-04-13 13:55:00,43.7,-7.3,29.99,WNW,292,13.0,0.0,11,0.00,,,0.00,730,WeatherHawk,2013-04-13 20:55:00,
2013-04-13 14:00:00,43.3,-7.6,30.00,WNW,283,15.0,0.0,11,0.00,,,0.00,711,WeatherHawk,2013-04-13 21:00:00,
2013-04-13 14:05:00,43.8,-3.8,30.00,WSW,239,13.0,0.0,13,0.00,,,0.00,709,WeatherHawk,2013-04-13 21:05:00,
2013-04-13 14:10:00,43.1,-14.2,29.99,WSW,251,17.0,0.0,8,0.00,,,0.00,592,WeatherHawk,2013-04-13 21:10:00,
2013-04-13 14:15:00,44.0,-7.1,29.99,WNW,288,15.0,0.0,11,0.00,,,0.00,522,WeatherHawk,2013-04-13 21:15:00,
2013-04-13 14:20:00,44.0,-16.1,29.99,West,272,14.0,0.0,7,0.00,,,0.00,528,WeatherHawk,2013-04-13 21:20:00,
2013-04-13 14:25:00,44.8,-10.5,30.00,West,270,10.0,0.0,9,0.00,,,0.00,610,WeatherHawk,2013-04-13 21:25:00,
2013-04-13 14:30:00,44.1,-11.1,30.00,West,262,14.0,0.0,9,0.00,,,0.00,623,WeatherHawk,2013-04-13 21:30:00,
2013-04-13 14:36:00,43.5,-7.5,30.00,NW,310,25.0,0.0,11,0.00,,,0.00,511,WeatherHawk,2013-04-13 21:36:00,
2013-04-13 14:41:00,43.4,-7.6,30.00,WNW,298,20.0,0.0,11,0.00,,,0.00,501,WeatherHawk,2013-04-13 21:41:00,
2013-04-13 14:46:00,43.6,-9.3,29.99,West,263,20.0,0.0,10,0.00,,,0.00,540,WeatherHawk,2013-04-13 21:46:00,
2013-04-13 14:52:00,44.6,-4.8,29.99,WSW,247,16.0,0.0,12,0.00,,,0.00,496,WeatherHawk,2013-04-13 21:52:00,
2013-04-13 14:57:00,43.0,-11.9,30.00,WSW,256,22.0,0.0,9,0.00,,,0.00,445,WeatherHawk,2013-04-13 21:57:00,
2013-04-13 15:02:00,45.5,-4.1,30.00,WNW,284,11.0,0.0,12,0.00,,,0.00,450,WeatherHawk,2013-04-13 22:02:00,
2013-04-13 15:07:00,44.6,-1.6,30.00,West,277,13.0,0.0,14,0.00,,,0.00,459,WeatherHawk,2013-04-13 22:07:00,
2013-04-13 15:12:00,45.0,-4.5,30.00,West,270,14.0,0.0,12,0.00,,,0.00,498,WeatherHawk,2013-04-13 22:12:00,
2013-04-13 15:17:00,44.6,-10.7,30.00,SW,231,19.0,0.0,9,0.00,,,0.00,366,WeatherHawk,2013-04-13 22:17:00,
2013-04-13 15:23:00,45.8,-3.9,30.00,WSW,241,11.0,0.0,12,0.00,,,0.00,447,WeatherHawk,2013-04-13 22:23:00,
2013-04-13 15:28:00,44.2,-2.0,30.00,West,269,12.0,0.0,14,0.00,,,0.00,393,WeatherHawk,2013-04-13 22:28:00,
2013-04-13 15:33:00,43.2,-2.8,30.01,West,261,17.0,0.0,14,0.00,,,0.00,425,WeatherHawk,2013-04-13 22:33:00,
2013-04-13 15:38:00,44.1,-2.0,30.00,West,274,16.0,0.0,14,0.00,,,0.00,397,WeatherHawk,2013-04-13 22:38:00,
2013-04-13 15:43:00,45.2,0.3,30.00,WSW,249,9.0,0.0,15,0.00,,,0.00,351,WeatherHawk,2013-04-13 22:43:00,
2013-04-13 15:48:00,43.5,-4.0,30.00,West,264,7.0,0.0,13,0.00,,,0.00,386,WeatherHawk,2013-04-13 22:48:00,
2013-04-13 15:53:00,43.4,-1.2,30.00,West,264,21.0,0.0,15,0.00,,,0.00,468,WeatherHawk,2013-04-13 22:53:00,
2013-04-13 15:58:00,46.4,-1.7,30.00,WSW,256,14.0,0.0,13,0.00,,,0.00,540,WeatherHawk,2013-04-13 22:58:00,
2013-04-13 16:03:00,43.7,1.8,30.00,WNW,285,15.0,0.0,17,0.00,,,0.00,465,WeatherHawk,2013-04-13 23:03:00,
2013-04-13 16:08:00,44.8,1.4,30.00,West,274,13.0,0.0,16,0.00,,,0.00,541,WeatherHawk,2013-04-13 23:08:00,
2013-04-13 16:13:00,44.1,-3.6,30.01,West,273,21.0,0.0,13,0.00,,,0.00,489,WeatherHawk,2013-04-13 23:13:00,
2013-04-13 16:19:00,45.6,2.1,30.00,SW,226,10.0,-999.0,16,0.00,,,0.00,559,WeatherHawk,2013-04-13 23:19:00,
2013-04-13 16:24:00,44.1,0.9,30.01,NW,319,22.0,0.0,16,0.00,,,0.00,475,WeatherHawk,2013-04-13 23:24:00,
2013-04-13 16:29:00,45.9,3.6,30.00,NNE,16,9.0,0.0,17,0.00,,,0.00,410,WeatherHawk,2013-04-13 23:29:00,
2013-04-13 16:34:00,46.1,2.4,30.01,WNW,284,6.0,0.0,16,0.00,,,0.00,378,WeatherHawk,2013-04-13 23:34:00,
2013-04-13 16:39:00,44.5,-1.7,30.01,WSW,253,11.0,0.0,14,0.00,,,0.00,378,WeatherHawk,2013-04-13 23:39:00,
2013-04-13 16:44:00,44.6,-8.6,30.01,West,276,13.0,-999.0,10,0.00,,,0.00,341,WeatherHawk,2013-04-13 23:44:00,
2013-04-13 16:49:00,43.3,-5.8,30.02,WNW,296,16.0,0.0,12,0.00,,,0.00,411,WeatherHawk,2013-04-13 23:49:00,
2013-04-13 16:54:00,44.1,-7.0,30.01,West,271,15.0,-999.0,11,0.00,,,0.00,432,WeatherHawk,2013-04-13 23:54:00,
2013-04-13 16:59:00,45.1,-1.2,30.02,West,266,12.0,0.0,14,0.00,,,0.00,417,WeatherHawk,2013-04-13 23:59:00,
2013-04-13 17:04:00,44.0,-7.1,30.02,WNW,290,21.0,0.0,11,0.00,,,0.00,422,WeatherHawk,2013-04-14 00:04:00,
2013-04-13 17:09:00,43.8,-3.8,30.02,WNW,294,19.0,0.0,13,0.00,,,0.00,103,WeatherHawk,2013-04-14 00:09:00,
2013-04-13 17:14:00,43.2,1.4,30.02,NW,307,13.0,0.0,17,0.00,,,0.00,406,WeatherHawk,2013-04-14 00:14:00,
2013-04-13 17:19:00,42.7,-6.3,30.03,NNW,340,21.0,-999.0,12,0.00,,,0.00,108,WeatherHawk,2013-04-14 00:19:00,
2013-04-13 17:24:00,43.7,-7.3,30.03,WSW,249,8.0,0.0,11,0.00,,,0.00,356,WeatherHawk,2013-04-14 00:24:00,
2013-04-13 17:29:00,43.3,-2.6,30.03,West,269,11.0,0.0,14,0.00,,,0.00,342,WeatherHawk,2013-04-14 00:29:00,
2013-04-13 17:34:00,44.2,-6.9,30.02,West,265,10.0,0.0,11,0.00,,,0.00,330,WeatherHawk,2013-04-14 00:34:00,
2013-04-13 17:39:00,44.2,-0.4,30.03,SSW,206,6.0,0.0,15,0.00,,,0.00,264,WeatherHawk,2013-04-14 00:39:00,
2013-04-13 17:44:00,43.8,-3.8,30.03,SSW,194,8.0,0.0,13,0.00,,,0.00,96,WeatherHawk,2013-04-14 00:44:00,
2013-04-13 17:49:00,43.6,0.4,30.03,SSE,152,8.0,-999.0,16,0.00,,,0.00,147,WeatherHawk,2013-04-14 00:49:00,
2013-04-13 17:54:00,44.2,0.9,30.03,SSW,197,8.0,0.0,16,0.00,,,0.00,316,WeatherHawk,2013-04-14 00:54:00,
2013-04-13 17:59:00,44.3,-5.1,30.03,NNW,328,6.0,0.0,12,0.00,,,0.00,69,WeatherHawk,2013-04-14 00:59:00,
2013-04-13 18:04:00,44.9,-1.4,30.03,WSW,256,7.0,0.0,14,0.00,,,0.00,255,WeatherHawk,2013-04-14 01:04:00,
2013-04-13 18:09:00,41.9,-2.3,30.03,WNW,288,12.0,0.0,15,0.00,,,0.00,39,WeatherHawk,2013-04-14 01:09:00,
2013-04-13 18:14:00,41.9,0.3,30.04,WSW,254,5.0,0.0,17,0.00,,,0.00,52,WeatherHawk,2013-04-14 01:14:00,
2013-04-13 18:19:00,41.8,-1.0,30.04,WSW,251,4.0,0.0,16,0.00,,,0.00,99,WeatherHawk,2013-04-14 01:19:00,
2013-04-13 18:24:00,42.9,2.4,30.04,SW,225,5.0,0.0,18,0.00,,,0.00,98,WeatherHawk,2013-04-14 01:24:00,
2013-04-13 18:30:00,43.2,3.8,30.04,SW,218,5.0,0.0,19,0.00,,,0.00,159,WeatherHawk,2013-04-14 01:30:00,
2013-04-13 18:35:00,42.9,4.6,30.04,NW,314,10.0,0.0,20,0.00,,,0.00,173,WeatherHawk,2013-04-14 01:35:00,
2013-04-13 18:40:00,42.4,4.2,30.04,WSW,251,5.0,0.0,20,0.00,,,0.00,66,WeatherHawk,2013-04-14 01:40:00,
2013-04-13 18:46:00,42.6,-3.2,30.04,WSW,238,7.0,0.0,14,0.00,,,0.00,131,WeatherHawk,2013-04-14 01:46:00,
2013-04-13 18:51:00,41.9,-1.0,30.04,WSW,255,8.0,0.0,16,0.00,,,0.00,122,WeatherHawk,2013-04-14 01:51:00,
2013-04-13 18:57:00,42.3,-0.6,30.04,West,262,7.0,0.0,16,0.00,,,0.00,113,WeatherHawk,2013-04-14 01:57:00,
2013-04-13 19:02:00,42.0,-0.9,30.04,WNW,298,8.0,0.0,16,0.00,,,0.00,61,WeatherHawk,2013-04-14 02:02:00,
2013-04-13 19:08:00,41.3,1.0,30.04,SSW,212,4.0,0.0,18,0.00,,,0.00,32,WeatherHawk,2013-04-14 02:08:00,
2013-04-13 19:13:00,40.9,-0.5,30.04,SW,228,5.0,0.0,17,0.00,,,0.00,20,WeatherHawk,2013-04-14 02:13:00,
2013-04-13 19:18:00,40.5,1.5,30.05,SW,232,5.0,0.0,19,0.00,,,0.00,17,WeatherHawk,2013-04-14 02:18:00,
2013-04-13 19:23:00,39.9,5.1,30.05,WSW,248,4.0,0.0,23,0.00,,,0.00,14,WeatherHawk,2013-04-14 02:23:00,
2013-04-13 19:28:00,39.9,6.1,30.05,WSW,251,6.0,0.0,24,0.00,,,0.00,12,WeatherHawk,2013-04-14 02:28:00,
2013-04-13 19:33:00,39.4,4.7,30.04,WSW,250,3.0,0.0,23,0.00,,,0.00,6,WeatherHawk,2013-04-14 02:33:00,
2013-04-13 19:38:00,39.6,3.9,30.05,West,261,7.0,0.0,22,0.00,,,0.00,7,WeatherHawk,2013-04-14 02:38:00,
2013-04-13 19:44:00,39.5,5.7,30.05,SW,234,7.0,0.0,24,0.00,,,0.00,5,WeatherHawk,2013-04-14 02:44:00,
2013-04-13 19:49:00,39.6,6.7,30.05,West,263,5.0,0.0,25,0.00,,,0.00,4,WeatherHawk,2013-04-14 02:49:00,
2013-04-13 19:54:00,39.7,5.9,30.05,WNW,293,5.0,0.0,24,0.00,,,0.00,3,WeatherHawk,2013-04-14 02:54:00,
2013-04-13 19:59:00,39.1,5.4,30.05,WSW,256,6.0,0.0,24,0.00,,,0.00,1,WeatherHawk,2013-04-14 02:59:00,
2013-04-13 20:04:00,39.0,6.2,30.06,WSW,258,5.0,0.0,25,0.00,,,0.00,0,WeatherHawk,2013-04-14 03:04:00,
2013-04-13 20:09:00,39.3,7.3,30.06,West,266,7.0,0.0,26,0.00,,,0.00,0,WeatherHawk,2013-04-14 03:09:00,
2013-04-13 20:14:00,39.1,7.1,30.06,WSW,242,5.0,0.0,26,0.00,,,0.00,0,WeatherHawk,2013-04-14 03:14:00,
2013-04-13 20:19:00,38.5,6.6,30.06,WSW,246,4.0,0.0,26,0.00,,,0.00,1,WeatherHawk,2013-04-14 03:19:00,
2013-04-13 20:24:00,38.9,7.8,30.06,SSW,205,5.0,-999.0,27,0.00,,,0.00,0,WeatherHawk,2013-04-14 03:24:00,
2013-04-13 20:29:00,39.0,8.7,30.06,SSW,208,7.0,0.0,28,0.00,,,0.00,0,WeatherHawk,2013-04-14 03:29:00,
2013-04-13 20:34:00,38.5,8.3,30.06,SSW,207,5.0,-999.0,28,0.00,,,0.00,0,WeatherHawk,2013-04-14 03:34:00,
2013-04-13 20:39:00,38.7,8.5,30.07,SW,220,7.0,0.0,28,0.00,,,0.00,0,WeatherHawk,2013-04-14 03:39:00,
2013-04-13 20:44:00,38.6,9.2,30.07,WSW,247,7.0,0.0,29,0.00,,,0.00,0,WeatherHawk,2013-04-14 03:44:00,
2013-04-13 20:49:00,39.3,9.0,30.07,WSW,244,6.0,0.0,28,0.00,,,0.00,0,WeatherHawk,2013-04-14 03:49:00,
2013-04-13 20:54:00,38.8,9.3,30.08,West,266,5.0,-999.0,29,0.00,,,0.00,0,WeatherHawk,2013-04-14 03:54:00,
2013-04-13 20:59:00,38.7,9.2,30.07,WSW,245,4.0,0.0,29,0.00,,,0.00,0,WeatherHawk,2013-04-14 03:59:00,
2013-04-13 21:00:00,38.5,9.0,30.07,South,186,7.0,0.0,29,0.00,,,0.00,0,WeatherHawk,2013-04-14 04:00:00,
2013-04-13 21:01:00,38.9,9.3,30.07,SW,219,5.0,0.0,29,0.00,,,0.00,0,WeatherHawk,2013-04-14 04:01:00,
2013-04-13 21:02:00,38.1,8.7,30.08,WSW,257,4.0,0.0,29,0.00,,,0.00,0,WeatherHawk,2013-04-14 04:02:00,
2013-04-13 21:07:00,37.7,9.8,30.08,SSE,167,4.0,0.0,31,0.00,,,0.00,0,WeatherHawk,2013-04-14 04:07:00,
2013-04-13 21:12:00,38.3,8.9,30.07,West,266,7.0,0.0,29,0.00,,,0.00,0,WeatherHawk,2013-04-14 04:12:00,
2013-04-13 21:18:00,38.5,9.0,30.07,SW,223,11.0,0.0,29,0.00,,,0.00,0,WeatherHawk,2013-04-14 04:18:00,
2013-04-13 21:23:00,38.4,9.0,30.08,WSW,238,7.0,0.0,29,0.00,,,0.00,0,WeatherHawk,2013-04-14 04:23:00,
2013-04-13 21:28:00,37.9,8.6,30.08,South,186,2.0,0.0,29,0.00,,,0.00,0,WeatherHawk,2013-04-14 04:28:00,
2013-04-13 21:34:00,38.4,9.0,30.08,WSW,244,6.0,-999.0,29,0.00,,,0.00,0,WeatherHawk,2013-04-14 04:34:00,
2013-04-13 21:39:00,37.8,9.2,30.08,WSW,257,4.0,0.0,30,0.00,,,0.00,0,WeatherHawk,2013-04-14 04:39:00,
2013-04-13 21:44:00,37.5,8.9,30.09,SSW,211,5.0,0.0,30,0.00,,,0.00,0,WeatherHawk,2013-04-14 04:44:00,
2013-04-13 21:49:00,37.0,8.5,30.09,SW,228,2.0,-999.0,30,0.00,,,0.00,0,WeatherHawk,2013-04-14 04:49:00,
2013-04-13 21:54:00,37.3,8.0,30.09,WSW,243,5.0,0.0,29,0.00,,,0.00,0,WeatherHawk,2013-04-14 04:54:00,
2013-04-13 21:59:00,37.1,7.8,30.08,SW,235,3.0,0.0,29,0.00,,,0.00,0,WeatherHawk,2013-04-14 04:59:00,
2013-04-13 22:04:00,37.6,8.2,30.09,SW,231,6.0,0.0,29,0.00,,,0.00,0,WeatherHawk,2013-04-14 05:04:00,
2013-04-13 22:09:00,36.7,9.0,30.09,SSW,198,6.0,0.0,31,0.00,,,0.00,0,WeatherHawk,2013-04-14 05:09:00,
2013-04-13 22:14:00,37.1,8.6,30.09,NW,306,7.0,0.0,30,0.00,,,0.00,0,WeatherHawk,2013-04-14 05:14:00,
2013-04-13 22:19:00,36.8,9.0,30.09,WSW,250,2.0,-999.0,31,0.00,,,0.00,0,WeatherHawk,2013-04-14 05:19:00,
2013-04-13 22:24:00,36.2,9.9,30.10,SSW,207,2.0,0.0,33,0.00,,,0.00,0,WeatherHawk,2013-04-14 05:24:00,
2013-04-13 22:29:00,36.5,10.2,30.09,SW,231,3.0,-999.0,33,0.00,,,0.00,0,WeatherHawk,2013-04-14 05:29:00,
2013-04-13 22:34:00,36.2,11.3,30.10,SW,220,2.0,0.0,35,0.00,,,0.00,0,WeatherHawk,2013-04-14 05:34:00,
2013-04-13 22:39:00,36.7,11.0,30.09,SW,223,4.0,0.0,34,0.00,,,0.00,0,WeatherHawk,2013-04-14 05:39:00,
2013-04-13 22:44:00,36.7,11.6,30.09,WSW,255,4.0,0.0,35,0.00,,,0.00,1,WeatherHawk,2013-04-14 05:44:00,
2013-04-13 22:49:00,36.4,11.4,30.10,SW,232,5.0,0.0,35,0.00,,,0.00,0,WeatherHawk,2013-04-14 05:49:00,
2013-04-13 22:54:00,36.4,12.1,30.10,SW,225,5.0,0.0,36,0.00,,,0.00,0,WeatherHawk,2013-04-14 05:54:00,
2013-04-13 22:59:00,35.9,11.6,30.10,WSW,247,3.0,0.0,36,0.00,,,0.00,0,WeatherHawk,2013-04-14 05:59:00,
2013-04-13 23:04:00,36.3,11.3,30.10,SW,224,4.0,-999.0,35,0.00,,,0.00,0,WeatherHawk,2013-04-14 06:04:00,
2013-04-13 23:09:00,36.3,11.3,30.10,SW,214,5.0,0.0,35,0.00,,,0.00,0,WeatherHawk,2013-04-14 06:09:00,
2013-04-13 23:14:00,36.5,11.5,30.10,SW,219,6.0,-999.0,35,0.00,,,0.00,1,WeatherHawk,2013-04-14 06:14:00,
2013-04-13 23:19:00,35.6,11.3,30.10,South,186,4.0,0.0,36,0.00,,,0.00,0,WeatherHawk,2013-04-14 06:19:00,
2013-04-13 23:24:00,34.9,11.9,30.10,SSE,163,6.0,0.0,38,0.00,,,0.00,0,WeatherHawk,2013-04-14 06:24:00,
2013-04-13 23:29:00,36.0,13.5,30.10,SW,220,6.0,0.0,39,0.00,,,0.00,0,WeatherHawk,2013-04-14 06:29:00,
2013-04-13 23:34:00,35.8,13.9,30.10,SW,223,5.0,-999.0,40,0.00,,,0.00,0,WeatherHawk,2013-04-14 06:34:00,
2013-04-13 23:39:00,36.1,14.1,30.10,SSW,198,6.0,0.0,40,0.00,,,0.00,0,WeatherHawk,2013-04-14 06:39:00,
2013-04-13 23:44:00,35.9,14.5,30.11,SSW,213,5.0,0.0,41,0.00,,,0.00,0,WeatherHawk,2013-04-14 06:44:00,
2013-04-13 23:49:00,35.1,13.8,30.11,SSW,201,2.0,0.0,41,0.00,,,0.00,1,WeatherHawk,2013-04-14 06:49:00,
2013-04-13 23:54:00,34.8,14.0,30.11,SSE,164,4.0,0.0,42,0.00,,,0.00,0,WeatherHawk,2013-04-14 06:54:00,
2013-04-13 23:59:00,35.0,14.2,30.11,South,176,4.0,-999.0,42,0.00,,,0.00,0,WeatherHawk,2013-04-14 06:59:00,